KABE/ABE METAR and TAF weather

Enter ICAO airport designator
Station Type Date Time Source
KABE METAR 2019/04/18 19:51 UTC NOAA

KABE 181951Z 05007KT 10SM CLR 21/13 A2989 RMK AO2 SLP121 T02110128


Station Type Date Time Source
KABE Decoded METAR 2019/04/18 19:51 UTC NOAA

LEHIGH VALLEY INTERNATIONAL AIRPORT, PA, United States (KABE) 40-39N 075-27W 114M
Apr 18, 2019 - 03:51 PM EDT / 2019.04.18 1951 UTC
Wind: from the NE (050 degrees) at 8 MPH (7 KT):0
Visibility: 10 mile(s):0
Sky conditions: clear
Temperature: 70.0 F (21.1 C)
Dew Point: 55.0 F (12.8 C)
Relative Humidity: 59%
Pressure (altimeter): 29.89 in. Hg (1012 hPa)
ob: KABE 181951Z 05007KT 10SM CLR 21/13 A2989 RMK AO2 SLP121 T02110128
cycle: 20

Station Type Date Time Source
KABE TAF 2019/04/18 19:48 UTC NOAA

TAF
AMD KABE 181845Z 1819/1918 13006KT P6SM BKN100
FM182100 18008KT P6SM BKN100
FM190300 16008KT P6SM BKN200 WS020/20035KT
FM190700 18008KT 3SM BR BKN120
FM190900 19009KT 3SM BR BKN025
FM191500 19011G19KT P6SM VCSH OVC020

Example: see airport list